sensor_id;sensor_type;location;lat;lon;timestamp;P1;durP1;ratioP1;P2;durP2;ratioP2
17604;SDS011;8921;50.964;6.800;2024-02-26T00:02:16;7.70;;;1.60;;
17604;SDS011;8921;50.964;6.800;2024-02-26T00:04:44;4.97;;;1.87;;
17604;SDS011;8921;50.964;6.800;2024-02-26T00:07:13;4.83;;;1.60;;
17604;SDS011;8921;50.964;6.800;2024-02-26T00:09:41;4.53;;;1.50;;
17604;SDS011;8921;50.964;6.800;2024-02-26T00:12:09;7.60;;;1.73;;
17604;SDS011;8921;50.964;6.800;2024-02-26T00:14:37;5.17;;;1.70;;
17604;SDS011;8921;50.964;6.800;2024-02-26T00:17:06;4.70;;;1.80;;
17604;SDS011;8921;50.964;6.800;2024-02-26T00:19:35;5.93;;;2.00;;
17604;SDS011;8921;50.964;6.800;2024-02-26T00:22:02;8.00;;;2.00;;
17604;SDS011;8921;50.964;6.800;2024-02-26T00:24:30;9.67;;;1.97;;
17604;SDS011;8921;50.964;6.800;2024-02-26T00:26:59;5.23;;;1.70;;
17604;SDS011;8921;50.964;6.800;2024-02-26T00:29:27;5.17;;;1.90;;
17604;SDS011;8921;50.964;6.800;2024-02-26T00:31:55;4.20;;;1.60;;
17604;SDS011;8921;50.964;6.800;2024-02-26T00:34:23;3.87;;;1.33;;
17604;SDS011;8921;50.964;6.800;2024-02-26T00:36:52;4.93;;;2.00;;
17604;SDS011;8921;50.964;6.800;2024-02-26T00:39:20;4.50;;;1.77;;
17604;SDS011;8921;50.964;6.800;2024-02-26T00:41:48;5.13;;;1.60;;
17604;SDS011;8921;50.964;6.800;2024-02-26T00:44:17;4.03;;;1.50;;
17604;SDS011;8921;50.964;6.800;2024-02-26T00:46:45;4.20;;;1.60;;
17604;SDS011;8921;50.964;6.800;2024-02-26T00:49:13;4.00;;;1.50;;
17604;SDS011;8921;50.964;6.800;2024-02-26T00:51:41;4.30;;;1.60;;
17604;SDS011;8921;50.964;6.800;2024-02-26T00:54:10;5.10;;;1.73;;
17604;SDS011;8921;50.964;6.800;2024-02-26T00:56:38;4.90;;;1.70;;
17604;SDS011;8921;50.964;6.800;2024-02-26T00:59:06;4.63;;;1.67;;
17604;SDS011;8921;50.964;6.800;2024-02-26T01:01:34;3.90;;;1.30;;
17604;SDS011;8921;50.964;6.800;2024-02-26T01:04:03;4.30;;;1.60;;
17604;SDS011;8921;50.964;6.800;2024-02-26T01:06:31;4.27;;;1.53;;
17604;SDS011;8921;50.964;6.800;2024-02-26T01:08:59;4.47;;;1.70;;
17604;SDS011;8921;50.964;6.800;2024-02-26T01:11:28;5.23;;;1.87;;
17604;SDS011;8921;50.964;6.800;2024-02-26T01:13:56;3.90;;;1.23;;
17604;SDS011;8921;50.964;6.800;2024-02-26T01:16:24;4.87;;;1.60;;
17604;SDS011;8921;50.964;6.800;2024-02-26T01:18:52;4.47;;;1.60;;
17604;SDS011;8921;50.964;6.800;2024-02-26T01:21:21;3.93;;;1.50;;
17604;SDS011;8921;50.964;6.800;2024-02-26T01:23:49;4.20;;;1.50;;
17604;SDS011;8921;50.964;6.800;2024-02-26T01:26:17;4.90;;;1.67;;
17604;SDS011;8921;50.964;6.800;2024-02-26T01:28:45;5.03;;;1.53;;
17604;SDS011;8921;50.964;6.800;2024-02-26T01:31:14;5.10;;;1.43;;
17604;SDS011;8921;50.964;6.800;2024-02-26T01:33:42;4.50;;;1.57;;
17604;SDS011;8921;50.964;6.800;2024-02-26T01:36:10;4.83;;;1.53;;
17604;SDS011;8921;50.964;6.800;2024-02-26T01:38:38;4.47;;;1.50;;
17604;SDS011;8921;50.964;6.800;2024-02-26T01:41:07;6.23;;;1.70;;
17604;SDS011;8921;50.964;6.800;2024-02-26T01:43:35;5.20;;;1.80;;
17604;SDS011;8921;50.964;6.800;2024-02-26T01:46:03;4.60;;;1.40;;
17604;SDS011;8921;50.964;6.800;2024-02-26T01:48:31;4.37;;;1.50;;
17604;SDS011;8921;50.964;6.800;2024-02-26T01:51:00;5.30;;;2.17;;
17604;SDS011;8921;50.964;6.800;2024-02-26T01:53:28;6.07;;;1.57;;
17604;SDS011;8921;50.964;6.800;2024-02-26T01:55:56;6.27;;;1.57;;
17604;SDS011;8921;50.964;6.800;2024-02-26T01:58:25;9.00;;;2.60;;
17604;SDS011;8921;50.964;6.800;2024-02-26T02:00:53;6.13;;;2.80;;
17604;SDS011;8921;50.964;6.800;2024-02-26T02:03:21;3.90;;;1.57;;
17604;SDS011;8921;50.964;6.800;2024-02-26T02:05:49;5.87;;;1.80;;
17604;SDS011;8921;50.964;6.800;2024-02-26T02:08:18;4.43;;;1.40;;
17604;SDS011;8921;50.964;6.800;2024-02-26T02:10:46;5.60;;;1.70;;
17604;SDS011;8921;50.964;6.800;2024-02-26T02:13:14;3.83;;;1.40;;
17604;SDS011;8921;50.964;6.800;2024-02-26T02:15:42;4.80;;;1.63;;
17604;SDS011;8921;50.964;6.800;2024-02-26T02:18:11;4.20;;;1.50;;
17604;SDS011;8921;50.964;6.800;2024-02-26T02:20:39;5.50;;;1.40;;
17604;SDS011;8921;50.964;6.800;2024-02-26T02:23:10;6.67;;;1.60;;
17604;SDS011;8921;50.964;6.800;2024-02-26T02:25:38;4.93;;;1.50;;
17604;SDS011;8921;50.964;6.800;2024-02-26T02:28:07;4.57;;;1.70;;
17604;SDS011;8921;50.964;6.800;2024-02-26T02:30:35;4.90;;;1.80;;
17604;SDS011;8921;50.964;6.800;2024-02-26T02:33:03;5.20;;;2.03;;
17604;SDS011;8921;50.964;6.800;2024-02-26T02:35:32;4.60;;;1.63;;
17604;SDS011;8921;50.964;6.800;2024-02-26T02:38:00;4.23;;;1.70;;
17604;SDS011;8921;50.964;6.800;2024-02-26T02:40:28;4.10;;;1.73;;
17604;SDS011;8921;50.964;6.800;2024-02-26T02:42:57;4.30;;;1.60;;
17604;SDS011;8921;50.964;6.800;2024-02-26T02:45:25;5.83;;;1.80;;
17604;SDS011;8921;50.964;6.800;2024-02-26T02:47:53;5.07;;;1.70;;
17604;SDS011;8921;50.964;6.800;2024-02-26T02:50:21;4.50;;;1.40;;
17604;SDS011;8921;50.964;6.800;2024-02-26T02:52:50;4.67;;;1.63;;
17604;SDS011;8921;50.964;6.800;2024-02-26T02:55:18;4.10;;;1.63;;
17604;SDS011;8921;50.964;6.800;2024-02-26T02:57:46;4.50;;;1.50;;
17604;SDS011;8921;50.964;6.800;2024-02-26T03:00:15;3.90;;;1.60;;
17604;SDS011;8921;50.964;6.800;2024-02-26T03:02:43;3.67;;;1.50;;
17604;SDS011;8921;50.964;6.800;2024-02-26T03:05:11;4.03;;;1.40;;
17604;SDS011;8921;50.964;6.800;2024-02-26T03:07:39;4.00;;;1.50;;
17604;SDS011;8921;50.964;6.800;2024-02-26T03:10:08;4.23;;;1.50;;
17604;SDS011;8921;50.964;6.800;2024-02-26T03:12:36;4.67;;;1.40;;
17604;SDS011;8921;50.964;6.800;2024-02-26T03:15:04;6.07;;;1.90;;
17604;SDS011;8921;50.964;6.800;2024-02-26T03:17:33;4.17;;;1.50;;
17604;SDS011;8921;50.964;6.800;2024-02-26T03:20:01;4.83;;;1.77;;
17604;SDS011;8921;50.964;6.800;2024-02-26T03:22:29;6.33;;;1.60;;
17604;SDS011;8921;50.964;6.800;2024-02-26T03:24:58;5.63;;;1.90;;
17604;SDS011;8921;50.964;6.800;2024-02-26T03:27:26;3.97;;;1.53;;
17604;SDS011;8921;50.964;6.800;2024-02-26T03:29:54;6.90;;;1.60;;
17604;SDS011;8921;50.964;6.800;2024-02-26T03:32:22;4.53;;;1.43;;
17604;SDS011;8921;50.964;6.800;2024-02-26T03:34:51;7.10;;;1.67;;
17604;SDS011;8921;50.964;6.800;2024-02-26T03:37:22;4.10;;;1.40;;
17604;SDS011;8921;50.964;6.800;2024-02-26T03:39:50;4.17;;;1.57;;
17604;SDS011;8921;50.964;6.800;2024-02-26T03:42:18;4.30;;;1.70;;
17604;SDS011;8921;50.964;6.800;2024-02-26T03:44:47;10.03;;;1.70;;
17604;SDS011;8921;50.964;6.800;2024-02-26T03:47:15;5.10;;;2.07;;
17604;SDS011;8921;50.964;6.800;2024-02-26T03:49:43;4.30;;;1.60;;
17604;SDS011;8921;50.964;6.800;2024-02-26T03:52:11;3.80;;;1.47;;
17604;SDS011;8921;50.964;6.800;2024-02-26T03:54:40;4.20;;;1.60;;
17604;SDS011;8921;50.964;6.800;2024-02-26T03:57:08;6.73;;;2.20;;
17604;SDS011;8921;50.964;6.800;2024-02-26T03:59:36;5.40;;;2.03;;
17604;SDS011;8921;50.964;6.800;2024-02-26T04:02:04;6.50;;;1.77;;
17604;SDS011;8921;50.964;6.800;2024-02-26T04:04:36;4.17;;;1.60;;
17604;SDS011;8921;50.964;6.800;2024-02-26T04:07:04;3.73;;;1.43;;
17604;SDS011;8921;50.964;6.800;2024-02-26T04:09:32;3.80;;;1.57;;
17604;SDS011;8921;50.964;6.800;2024-02-26T04:12:01;5.27;;;2.10;;
17604;SDS011;8921;50.964;6.800;2024-02-26T04:14:29;4.30;;;1.43;;
17604;SDS011;8921;50.964;6.800;2024-02-26T04:16:57;4.20;;;1.50;;
17604;SDS011;8921;50.964;6.800;2024-02-26T04:19:25;4.50;;;1.70;;
17604;SDS011;8921;50.964;6.800;2024-02-26T04:21:54;5.90;;;1.77;;
17604;SDS011;8921;50.964;6.800;2024-02-26T04:24:22;4.57;;;1.73;;
17604;SDS011;8921;50.964;6.800;2024-02-26T04:26:50;5.23;;;2.30;;
17604;SDS011;8921;50.964;6.800;2024-02-26T04:29:18;5.70;;;2.07;;
17604;SDS011;8921;50.964;6.800;2024-02-26T04:31:47;3.70;;;1.47;;
17604;SDS011;8921;50.964;6.800;2024-02-26T04:34:15;5.97;;;1.90;;
17604;SDS011;8921;50.964;6.800;2024-02-26T04:36:43;5.30;;;1.80;;
17604;SDS011;8921;50.964;6.800;2024-02-26T04:39:12;4.40;;;1.73;;
17604;SDS011;8921;50.964;6.800;2024-02-26T04:41:40;5.23;;;1.97;;
17604;SDS011;8921;50.964;6.800;2024-02-26T04:44:08;5.97;;;2.47;;
17604;SDS011;8921;50.964;6.800;2024-02-26T04:46:36;4.77;;;1.80;;
17604;SDS011;8921;50.964;6.800;2024-02-26T04:49:05;5.87;;;2.07;;
17604;SDS011;8921;50.964;6.800;2024-02-26T04:51:33;4.97;;;2.33;;
17604;SDS011;8921;50.964;6.800;2024-02-26T04:54:01;5.50;;;2.23;;
17604;SDS011;8921;50.964;6.800;2024-02-26T04:56:29;5.00;;;1.90;;
17604;SDS011;8921;50.964;6.800;2024-02-26T04:58:58;4.00;;;2.03;;
17604;SDS011;8921;50.964;6.800;2024-02-26T05:01:26;3.77;;;1.60;;
17604;SDS011;8921;50.964;6.800;2024-02-26T05:03:54;5.27;;;1.93;;
17604;SDS011;8921;50.964;6.800;2024-02-26T05:06:22;4.47;;;2.20;;
17604;SDS011;8921;50.964;6.800;2024-02-26T05:08:51;5.17;;;2.13;;
17604;SDS011;8921;50.964;6.800;2024-02-26T05:11:19;4.57;;;2.10;;
17604;SDS011;8921;50.964;6.800;2024-02-26T05:13:47;4.53;;;2.17;;
17604;SDS011;8921;50.964;6.800;2024-02-26T05:16:16;5.13;;;2.10;;
17604;SDS011;8921;50.964;6.800;2024-02-26T05:18:44;4.63;;;1.90;;
17604;SDS011;8921;50.964;6.800;2024-02-26T05:21:12;3.80;;;2.00;;
17604;SDS011;8921;50.964;6.800;2024-02-26T05:23:40;4.80;;;1.97;;
17604;SDS011;8921;50.964;6.800;2024-02-26T05:26:09;6.87;;;2.47;;
17604;SDS011;8921;50.964;6.800;2024-02-26T05:28:37;4.67;;;2.30;;
17604;SDS011;8921;50.964;6.800;2024-02-26T05:31:05;6.80;;;2.83;;
17604;SDS011;8921;50.964;6.800;2024-02-26T05:33:33;4.20;;;1.90;;
17604;SDS011;8921;50.964;6.800;2024-02-26T05:36:02;3.80;;;1.97;;
17604;SDS011;8921;50.964;6.800;2024-02-26T05:38:30;8.10;;;2.20;;
17604;SDS011;8921;50.964;6.800;2024-02-26T05:40:58;4.20;;;2.10;;
17604;SDS011;8921;50.964;6.800;2024-02-26T05:43:27;4.50;;;2.50;;
17604;SDS011;8921;50.964;6.800;2024-02-26T05:45:55;4.20;;;1.97;;
17604;SDS011;8921;50.964;6.800;2024-02-26T05:48:23;3.93;;;1.87;;
17604;SDS011;8921;50.964;6.800;2024-02-26T05:50:51;4.57;;;2.40;;
17604;SDS011;8921;50.964;6.800;2024-02-26T05:53:20;5.70;;;2.43;;
17604;SDS011;8921;50.964;6.800;2024-02-26T05:55:48;4.37;;;2.20;;
17604;SDS011;8921;50.964;6.800;2024-02-26T05:58:16;5.43;;;2.50;;
17604;SDS011;8921;50.964;6.800;2024-02-26T06:00:44;4.83;;;2.23;;
17604;SDS011;8921;50.964;6.800;2024-02-26T06:03:13;5.63;;;3.20;;
17604;SDS011;8921;50.964;6.800;2024-02-26T06:05:42;5.57;;;2.73;;
17604;SDS011;8921;50.964;6.800;2024-02-26T06:08:09;6.03;;;3.03;;
17604;SDS011;8921;50.964;6.800;2024-02-26T06:10:38;4.80;;;3.10;;
17604;SDS011;8921;50.964;6.800;2024-02-26T06:13:06;5.37;;;2.63;;
17604;SDS011;8921;50.964;6.800;2024-02-26T06:15:34;9.00;;;4.10;;
17604;SDS011;8921;50.964;6.800;2024-02-26T06:18:03;6.67;;;3.53;;
17604;SDS011;8921;50.964;6.800;2024-02-26T06:20:31;5.17;;;2.50;;
17604;SDS011;8921;50.964;6.800;2024-02-26T06:22:59;6.47;;;2.27;;
17604;SDS011;8921;50.964;6.800;2024-02-26T06:25:27;8.17;;;4.43;;
17604;SDS011;8921;50.964;6.800;2024-02-26T06:27:56;4.40;;;2.73;;
17604;SDS011;8921;50.964;6.800;2024-02-26T06:30:24;7.00;;;2.40;;
17604;SDS011;8921;50.964;6.800;2024-02-26T06:32:52;5.23;;;3.00;;
17604;SDS011;8921;50.964;6.800;2024-02-26T06:35:21;6.57;;;2.60;;
17604;SDS011;8921;50.964;6.800;2024-02-26T06:37:49;5.30;;;2.47;;
17604;SDS011;8921;50.964;6.800;2024-02-26T06:40:17;5.40;;;2.60;;
17604;SDS011;8921;50.964;6.800;2024-02-26T06:42:45;5.00;;;2.83;;
17604;SDS011;8921;50.964;6.800;2024-02-26T06:45:14;7.37;;;3.00;;
17604;SDS011;8921;50.964;6.800;2024-02-26T06:47:42;5.23;;;2.50;;
17604;SDS011;8921;50.964;6.800;2024-02-26T06:50:11;4.83;;;2.63;;
17604;SDS011;8921;50.964;6.800;2024-02-26T06:52:39;5.87;;;2.57;;
17604;SDS011;8921;50.964;6.800;2024-02-26T06:55:07;5.93;;;2.60;;
17604;SDS011;8921;50.964;6.800;2024-02-26T06:57:35;5.40;;;3.10;;
17604;SDS011;8921;50.964;6.800;2024-02-26T07:00:04;4.60;;;2.37;;
17604;SDS011;8921;50.964;6.800;2024-02-26T07:02:32;3.83;;;2.00;;
17604;SDS011;8921;50.964;6.800;2024-02-26T07:05:00;5.13;;;2.73;;
17604;SDS011;8921;50.964;6.800;2024-02-26T07:07:28;5.90;;;3.00;;
17604;SDS011;8921;50.964;6.800;2024-02-26T07:09:57;4.73;;;2.40;;
17604;SDS011;8921;50.964;6.800;2024-02-26T07:12:25;4.50;;;2.23;;
17604;SDS011;8921;50.964;6.800;2024-02-26T07:14:53;8.83;;;2.80;;
17604;SDS011;8921;50.964;6.800;2024-02-26T07:17:22;7.43;;;3.03;;
17604;SDS011;8921;50.964;6.800;2024-02-26T07:19:50;5.97;;;2.70;;
17604;SDS011;8921;50.964;6.800;2024-02-26T07:22:18;8.37;;;3.30;;
17604;SDS011;8921;50.964;6.800;2024-02-26T07:24:46;10.83;;;3.33;;
17604;SDS011;8921;50.964;6.800;2024-02-26T07:27:15;5.63;;;3.07;;
17604;SDS011;8921;50.964;6.800;2024-02-26T07:29:43;4.80;;;2.80;;
17604;SDS011;8921;50.964;6.800;2024-02-26T07:32:11;6.63;;;3.67;;
17604;SDS011;8921;50.964;6.800;2024-02-26T07:34:39;5.20;;;3.47;;
17604;SDS011;8921;50.964;6.800;2024-02-26T07:37:08;8.53;;;3.50;;
17604;SDS011;8921;50.964;6.800;2024-02-26T07:39:36;7.60;;;3.43;;
17604;SDS011;8921;50.964;6.800;2024-02-26T07:42:04;5.00;;;2.53;;
17604;SDS011;8921;50.964;6.800;2024-02-26T07:44:33;4.90;;;2.87;;
17604;SDS011;8921;50.964;6.800;2024-02-26T07:47:01;5.97;;;2.93;;
17604;SDS011;8921;50.964;6.800;2024-02-26T07:49:29;6.17;;;3.00;;
17604;SDS011;8921;50.964;6.800;2024-02-26T07:51:57;5.47;;;2.63;;
17604;SDS011;8921;50.964;6.800;2024-02-26T07:54:26;5.60;;;2.83;;
17604;SDS011;8921;50.964;6.800;2024-02-26T07:56:54;5.83;;;2.67;;
17604;SDS011;8921;50.964;6.800;2024-02-26T07:59:22;4.57;;;2.67;;
17604;SDS011;8921;50.964;6.800;2024-02-26T08:01:51;4.87;;;2.33;;
17604;SDS011;8921;50.964;6.800;2024-02-26T08:04:19;5.90;;;2.57;;
17604;SDS011;8921;50.964;6.800;2024-02-26T08:06:47;8.30;;;3.27;;
17604;SDS011;8921;50.964;6.800;2024-02-26T08:09:15;6.10;;;3.20;;
17604;SDS011;8921;50.964;6.800;2024-02-26T08:11:44;4.83;;;2.40;;
17604;SDS011;8921;50.964;6.800;2024-02-26T08:14:12;7.83;;;3.33;;
17604;SDS011;8921;50.964;6.800;2024-02-26T08:16:40;5.77;;;2.57;;
17604;SDS011;8921;50.964;6.800;2024-02-26T08:19:08;6.17;;;3.40;;
17604;SDS011;8921;50.964;6.800;2024-02-26T08:21:37;4.93;;;2.57;;
17604;SDS011;8921;50.964;6.800;2024-02-26T08:24:05;5.10;;;2.67;;
17604;SDS011;8921;50.964;6.800;2024-02-26T08:26:33;7.03;;;2.40;;
17604;SDS011;8921;50.964;6.800;2024-02-26T08:29:02;6.63;;;3.10;;
17604;SDS011;8921;50.964;6.800;2024-02-26T08:31:30;5.00;;;3.03;;
17604;SDS011;8921;50.964;6.800;2024-02-26T08:33:58;5.87;;;2.93;;
17604;SDS011;8921;50.964;6.800;2024-02-26T08:36:27;5.47;;;2.63;;
17604;SDS011;8921;50.964;6.800;2024-02-26T08:38:55;5.60;;;2.73;;
17604;SDS011;8921;50.964;6.800;2024-02-26T08:41:23;5.27;;;3.00;;
17604;SDS011;8921;50.964;6.800;2024-02-26T08:43:51;5.30;;;2.97;;
17604;SDS011;8921;50.964;6.800;2024-02-26T08:46:20;7.40;;;3.00;;
17604;SDS011;8921;50.964;6.800;2024-02-26T08:48:48;6.57;;;2.50;;
17604;SDS011;8921;50.964;6.800;2024-02-26T08:51:16;5.17;;;3.27;;
17604;SDS011;8921;50.964;6.800;2024-02-26T08:53:44;7.50;;;2.60;;
17604;SDS011;8921;50.964;6.800;2024-02-26T08:56:13;4.87;;;3.30;;
17604;SDS011;8921;50.964;6.800;2024-02-26T08:58:41;4.67;;;2.33;;
17604;SDS011;8921;50.964;6.800;2024-02-26T09:01:09;4.73;;;2.80;;
17604;SDS011;8921;50.964;6.800;2024-02-26T09:03:37;6.23;;;3.00;;
17604;SDS011;8921;50.964;6.800;2024-02-26T09:06:06;4.93;;;2.77;;
17604;SDS011;8921;50.964;6.800;2024-02-26T09:08:34;5.80;;;2.53;;
17604;SDS011;8921;50.964;6.800;2024-02-26T09:11:02;5.63;;;2.33;;
17604;SDS011;8921;50.964;6.800;2024-02-26T09:13:31;8.03;;;3.10;;
17604;SDS011;8921;50.964;6.800;2024-02-26T09:15:59;7.23;;;3.03;;
17604;SDS011;8921;50.964;6.800;2024-02-26T09:18:27;5.40;;;3.10;;
17604;SDS011;8921;50.964;6.800;2024-02-26T09:20:55;5.57;;;2.87;;
17604;SDS011;8921;50.964;6.800;2024-02-26T09:23:24;5.13;;;3.10;;
17604;SDS011;8921;50.964;6.800;2024-02-26T09:25:52;8.20;;;3.80;;
17604;SDS011;8921;50.964;6.800;2024-02-26T09:28:20;6.40;;;3.00;;
17604;SDS011;8921;50.964;6.800;2024-02-26T09:30:49;6.80;;;3.53;;
17604;SDS011;8921;50.964;6.800;2024-02-26T09:33:17;10.00;;;3.87;;
17604;SDS011;8921;50.964;6.800;2024-02-26T09:35:45;6.23;;;3.20;;
17604;SDS011;8921;50.964;6.800;2024-02-26T09:38:13;6.13;;;3.50;;
17604;SDS011;8921;50.964;6.800;2024-02-26T09:40:42;8.63;;;3.50;;
17604;SDS011;8921;50.964;6.800;2024-02-26T09:43:10;6.97;;;4.47;;
17604;SDS011;8921;50.964;6.800;2024-02-26T09:45:38;5.90;;;2.93;;
17604;SDS011;8921;50.964;6.800;2024-02-26T09:48:07;4.70;;;2.87;;
17604;SDS011;8921;50.964;6.800;2024-02-26T09:50:35;4.87;;;2.87;;
17604;SDS011;8921;50.964;6.800;2024-02-26T09:53:03;6.40;;;3.23;;
17604;SDS011;8921;50.964;6.800;2024-02-26T09:55:32;5.20;;;2.67;;
17604;SDS011;8921;50.964;6.800;2024-02-26T09:58:00;6.73;;;3.40;;
17604;SDS011;8921;50.964;6.800;2024-02-26T10:00:28;5.60;;;3.40;;
17604;SDS011;8921;50.964;6.800;2024-02-26T10:02:56;5.93;;;3.20;;
17604;SDS011;8921;50.964;6.800;2024-02-26T10:05:25;5.00;;;2.63;;
17604;SDS011;8921;50.964;6.800;2024-02-26T10:07:54;7.23;;;3.70;;
17604;SDS011;8921;50.964;6.800;2024-02-26T10:10:21;6.70;;;3.40;;
17604;SDS011;8921;50.964;6.800;2024-02-26T10:12:50;12.47;;;5.33;;
17604;SDS011;8921;50.964;6.800;2024-02-26T10:15:18;8.30;;;3.23;;
17604;SDS011;8921;50.964;6.800;2024-02-26T10:17:46;7.27;;;3.37;;
17604;SDS011;8921;50.964;6.800;2024-02-26T10:20:17;5.60;;;3.40;;
17604;SDS011;8921;50.964;6.800;2024-02-26T10:22:45;6.30;;;3.90;;
17604;SDS011;8921;50.964;6.800;2024-02-26T10:25:14;8.10;;;3.53;;
17604;SDS011;8921;50.964;6.800;2024-02-26T10:27:42;5.50;;;3.70;;
17604;SDS011;8921;50.964;6.800;2024-02-26T10:32:48;5.67;;;3.30;;
17604;SDS011;8921;50.964;6.800;2024-02-26T10:35:16;8.70;;;3.30;;
17604;SDS011;8921;50.964;6.800;2024-02-26T10:37:44;9.77;;;3.43;;
17604;SDS011;8921;50.964;6.800;2024-02-26T10:40:13;6.50;;;3.60;;
17604;SDS011;8921;50.964;6.800;2024-02-26T10:42:41;6.20;;;3.57;;
17604;SDS011;8921;50.964;6.800;2024-02-26T10:45:09;5.00;;;3.40;;
17604;SDS011;8921;50.964;6.800;2024-02-26T10:47:37;6.60;;;3.33;;
17604;SDS011;8921;50.964;6.800;2024-02-26T10:50:05;6.80;;;3.20;;
17604;SDS011;8921;50.964;6.800;2024-02-26T10:52:34;6.93;;;3.70;;
17604;SDS011;8921;50.964;6.800;2024-02-26T10:55:03;5.10;;;2.93;;
17604;SDS011;8921;50.964;6.800;2024-02-26T10:57:34;6.47;;;3.97;;
17604;SDS011;8921;50.964;6.800;2024-02-26T11:00:02;8.47;;;3.33;;
17604;SDS011;8921;50.964;6.800;2024-02-26T11:02:32;5.97;;;3.30;;
17604;SDS011;8921;50.964;6.800;2024-02-26T11:05:02;9.10;;;3.83;;
17604;SDS011;8921;50.964;6.800;2024-02-26T11:07:38;7.20;;;3.27;;
17604;SDS011;8921;50.964;6.800;2024-02-26T11:10:04;5.80;;;3.67;;
17604;SDS011;8921;50.964;6.800;2024-02-26T11:12:34;6.30;;;3.53;;
17604;SDS011;8921;50.964;6.800;2024-02-26T11:15:03;7.00;;;3.53;;
17604;SDS011;8921;50.964;6.800;2024-02-26T11:17:31;9.83;;;4.10;;
17604;SDS011;8921;50.964;6.800;2024-02-26T11:19:59;8.30;;;3.57;;
17604;SDS011;8921;50.964;6.800;2024-02-26T11:22:30;5.43;;;3.10;;
17604;SDS011;8921;50.964;6.800;2024-02-26T11:24:59;7.37;;;3.80;;
17604;SDS011;8921;50.964;6.800;2024-02-26T11:27:28;7.37;;;4.27;;
17604;SDS011;8921;50.964;6.800;2024-02-26T11:29:55;7.37;;;3.23;;
17604;SDS011;8921;50.964;6.800;2024-02-26T11:32:23;7.47;;;3.80;;
17604;SDS011;8921;50.964;6.800;2024-02-26T11:34:52;5.20;;;3.03;;
17604;SDS011;8921;50.964;6.800;2024-02-26T11:37:20;5.30;;;3.10;;
17604;SDS011;8921;50.964;6.800;2024-02-26T11:39:49;6.43;;;3.40;;
17604;SDS011;8921;50.964;6.800;2024-02-26T11:42:17;6.73;;;3.70;;
17604;SDS011;8921;50.964;6.800;2024-02-26T11:44:46;5.73;;;3.43;;
17604;SDS011;8921;50.964;6.800;2024-02-26T11:47:21;6.23;;;3.87;;
17604;SDS011;8921;50.964;6.800;2024-02-26T11:49:49;6.80;;;3.07;;
17604;SDS011;8921;50.964;6.800;2024-02-26T11:52:17;6.53;;;3.50;;
17604;SDS011;8921;50.964;6.800;2024-02-26T11:57:25;5.80;;;3.10;;
17604;SDS011;8921;50.964;6.800;2024-02-26T11:59:54;6.10;;;3.23;;
17604;SDS011;8921;50.964;6.800;2024-02-26T12:02:37;5.87;;;3.10;;
17604;SDS011;8921;50.964;6.800;2024-02-26T12:05:11;6.77;;;3.17;;
17604;SDS011;8921;50.964;6.800;2024-02-26T12:07:36;5.67;;;3.30;;
17604;SDS011;8921;50.964;6.800;2024-02-26T12:12:55;6.13;;;3.23;;
17604;SDS011;8921;50.964;6.800;2024-02-26T12:15:23;5.57;;;2.60;;
17604;SDS011;8921;50.964;6.800;2024-02-26T12:17:51;7.13;;;3.50;;
17604;SDS011;8921;50.964;6.800;2024-02-26T12:20:19;6.00;;;2.87;;
17604;SDS011;8921;50.964;6.800;2024-02-26T12:22:49;6.43;;;3.43;;
17604;SDS011;8921;50.964;6.800;2024-02-26T12:25:16;6.10;;;3.77;;
17604;SDS011;8921;50.964;6.800;2024-02-26T12:27:44;6.90;;;3.43;;
17604;SDS011;8921;50.964;6.800;2024-02-26T12:30:12;6.40;;;3.90;;
17604;SDS011;8921;50.964;6.800;2024-02-26T12:32:41;5.97;;;3.27;;
17604;SDS011;8921;50.964;6.800;2024-02-26T12:35:09;6.93;;;3.37;;
17604;SDS011;8921;50.964;6.800;2024-02-26T12:37:37;10.40;;;4.30;;
17604;SDS011;8921;50.964;6.800;2024-02-26T12:40:06;6.20;;;3.43;;
17604;SDS011;8921;50.964;6.800;2024-02-26T12:42:36;7.63;;;3.93;;
17604;SDS011;8921;50.964;6.800;2024-02-26T12:45:09;7.90;;;4.00;;
17604;SDS011;8921;50.964;6.800;2024-02-26T12:47:37;10.77;;;4.17;;
17604;SDS011;8921;50.964;6.800;2024-02-26T12:50:08;8.10;;;4.50;;
17604;SDS011;8921;50.964;6.800;2024-02-26T12:52:43;8.40;;;4.30;;
17604;SDS011;8921;50.964;6.800;2024-02-26T12:55:07;6.57;;;4.07;;
17604;SDS011;8921;50.964;6.800;2024-02-26T12:57:37;9.40;;;4.70;;
17604;SDS011;8921;50.964;6.800;2024-02-26T13:00:04;7.77;;;5.13;;
17604;SDS011;8921;50.964;6.800;2024-02-26T13:02:33;7.40;;;4.57;;
17604;SDS011;8921;50.964;6.800;2024-02-26T13:05:01;9.20;;;5.80;;
17604;SDS011;8921;50.964;6.800;2024-02-26T13:07:29;9.73;;;4.97;;
17604;SDS011;8921;50.964;6.800;2024-02-26T13:09:57;8.23;;;4.07;;
17604;SDS011;8921;50.964;6.800;2024-02-26T13:12:26;8.40;;;4.73;;
17604;SDS011;8921;50.964;6.800;2024-02-26T13:15:03;7.17;;;4.27;;
17604;SDS011;8921;50.964;6.800;2024-02-26T13:17:32;9.30;;;4.60;;
17604;SDS011;8921;50.964;6.800;2024-02-26T13:20:00;9.97;;;4.70;;
17604;SDS011;8921;50.964;6.800;2024-02-26T13:22:28;10.87;;;4.70;;
17604;SDS011;8921;50.964;6.800;2024-02-26T13:24:56;9.10;;;4.90;;
17604;SDS011;8921;50.964;6.800;2024-02-26T13:27:25;9.43;;;4.87;;
17604;SDS011;8921;50.964;6.800;2024-02-26T13:30:03;7.33;;;4.20;;
17604;SDS011;8921;50.964;6.800;2024-02-26T13:32:37;6.77;;;3.97;;
17604;SDS011;8921;50.964;6.800;2024-02-26T13:35:08;7.07;;;3.77;;
17604;SDS011;8921;50.964;6.800;2024-02-26T13:37:36;8.10;;;5.00;;
17604;SDS011;8921;50.964;6.800;2024-02-26T13:40:05;8.03;;;5.47;;
17604;SDS011;8921;50.964;6.800;2024-02-26T13:42:33;8.10;;;4.80;;
17604;SDS011;8921;50.964;6.800;2024-02-26T13:45:01;8.77;;;5.00;;
17604;SDS011;8921;50.964;6.800;2024-02-26T13:47:29;6.53;;;4.10;;
17604;SDS011;8921;50.964;6.800;2024-02-26T13:49:57;7.80;;;4.60;;
17604;SDS011;8921;50.964;6.800;2024-02-26T13:52:26;8.33;;;6.03;;
17604;SDS011;8921;50.964;6.800;2024-02-26T13:54:54;8.97;;;4.63;;
17604;SDS011;8921;50.964;6.800;2024-02-26T13:57:22;9.70;;;5.10;;
17604;SDS011;8921;50.964;6.800;2024-02-26T13:59:51;10.83;;;5.50;;
17604;SDS011;8921;50.964;6.800;2024-02-26T14:02:19;11.87;;;6.07;;
17604;SDS011;8921;50.964;6.800;2024-02-26T14:04:47;8.20;;;5.30;;
17604;SDS011;8921;50.964;6.800;2024-02-26T14:07:15;9.00;;;5.70;;
17604;SDS011;8921;50.964;6.800;2024-02-26T14:09:44;8.37;;;5.57;;
17604;SDS011;8921;50.964;6.800;2024-02-26T14:12:12;10.43;;;5.80;;
17604;SDS011;8921;50.964;6.800;2024-02-26T14:14:40;8.53;;;5.40;;
17604;SDS011;8921;50.964;6.800;2024-02-26T14:17:08;9.47;;;6.57;;
17604;SDS011;8921;50.964;6.800;2024-02-26T14:19:37;9.40;;;5.70;;
17604;SDS011;8921;50.964;6.800;2024-02-26T14:22:05;9.30;;;6.07;;
17604;SDS011;8921;50.964;6.800;2024-02-26T14:24:33;8.07;;;5.93;;
17604;SDS011;8921;50.964;6.800;2024-02-26T14:27:02;9.10;;;6.50;;
17604;SDS011;8921;50.964;6.800;2024-02-26T14:29:30;11.07;;;7.57;;
17604;SDS011;8921;50.964;6.800;2024-02-26T14:31:58;18.20;;;8.63;;
17604;SDS011;8921;50.964;6.800;2024-02-26T14:34:26;12.30;;;7.73;;
17604;SDS011;8921;50.964;6.800;2024-02-26T14:36:55;11.43;;;7.60;;
17604;SDS011;8921;50.964;6.800;2024-02-26T14:39:23;15.17;;;9.53;;
17604;SDS011;8921;50.964;6.800;2024-02-26T14:41:51;17.80;;;11.03;;
17604;SDS011;8921;50.964;6.800;2024-02-26T14:44:19;17.47;;;12.10;;
17604;SDS011;8921;50.964;6.800;2024-02-26T14:46:48;19.43;;;11.27;;
17604;SDS011;8921;50.964;6.800;2024-02-26T14:49:16;17.73;;;12.47;;
17604;SDS011;8921;50.964;6.800;2024-02-26T14:51:44;19.10;;;12.73;;
17604;SDS011;8921;50.964;6.800;2024-02-26T14:54:13;19.50;;;12.60;;
17604;SDS011;8921;50.964;6.800;2024-02-26T14:56:41;17.83;;;12.60;;
17604;SDS011;8921;50.964;6.800;2024-02-26T14:59:09;19.10;;;13.20;;
17604;SDS011;8921;50.964;6.800;2024-02-26T15:01:37;15.67;;;12.80;;
17604;SDS011;8921;50.964;6.800;2024-02-26T15:04:06;20.77;;;13.97;;
17604;SDS011;8921;50.964;6.800;2024-02-26T15:06:34;19.00;;;14.40;;
17604;SDS011;8921;50.964;6.800;2024-02-26T15:09:02;20.20;;;13.07;;
17604;SDS011;8921;50.964;6.800;2024-02-26T15:11:30;18.97;;;12.27;;
17604;SDS011;8921;50.964;6.800;2024-02-26T15:13:59;18.70;;;12.40;;
17604;SDS011;8921;50.964;6.800;2024-02-26T15:16:27;17.57;;;11.80;;